• Join FlightAware (Why Join?)
  • Login
  • US Flag 
10:02PM EDT


 

Airport Tracker/Info


-or-


 

Live Flight TrackerFlight Track Log ✈ JTA626 ✈ 11-Jul-2013 ✈ ROIG / ISG - ROAH / OKA

Flight Track Log - Related Links

Times and Time Zones

All times are in EDT time to prevent confusion due to time zone crossing. See the JTA626 flight status page for this flight to view local times or setup timezone preferences in your user account.

Time Position Orientation Groundspeed Altitude Reporting Facility
EDT Latitude Longitude Course Direction KTS MPH feet Rate Location/Type
05:27AM 24.5016 124.4708 59° Northeast  Level Estimated
05:28AM 24.5538 124.5656 59° Northeast  Level Estimated
05:29AM 24.6060 124.6604 59° Northeast  Level Estimated
05:30AM 24.6581 124.7553 59° Northeast  Level Estimated
05:31AM 24.7102 124.8503 59° Northeast  Level Estimated
05:32AM 24.7622 124.9454 59° Northeast  Level Estimated
05:33AM 24.8141 125.0406 59° Northeast  Level Estimated
05:34AM 24.8660 125.1358 59° Northeast  Level Estimated
05:35AM 24.9178 125.2311 59° Northeast  Level Estimated
05:36AM 24.9696 125.3265 59° Northeast  Level Estimated
05:37AM 25.0228 125.4247 59° Northeast  Level Estimated
05:38AM 25.0759 125.5230 59° Northeast  Level Estimated
05:39AM 25.1305 125.6243 59° Northeast  Level Estimated
05:40AM 25.1850 125.7256 59° Northeast  Level Estimated
05:41AM 25.2395 125.8271 59° Northeast  Level Estimated
05:42AM 25.2939 125.9286 59° Northeast  Level Estimated
05:43AM 25.3482 126.0303 59° Northeast  Level Estimated
05:44AM 25.4025 126.1320 59° Northeast  Level Estimated
05:45AM 25.4566 126.2338 59° Northeast  Level Estimated
05:46AM 25.5107 126.3357 60° Northeast  Level Estimated
05:47AM 25.5648 126.4378 60° Northeast  Level Estimated
05:48AM 25.6188 126.5398 60° Northeast  Level Estimated
05:49AM 25.6819 126.6597 60° Northeast  Level Estimated
05:50AM 25.7450 126.7796 60° Northeast  Level Estimated
05:51AM 25.8080 126.8997 60° Northeast  Level Estimated
05:52AM 25.8709 127.0199 60° Northeast  Level Estimated
05:53AM 25.9337 127.1402 60° Northeast  Level Estimated
05:54AM 25.9964 127.2606 60° Northeast  Level Estimated
05:55AM 26.0590 127.3812 60° Northeast  Level Estimated
05:56AM 26.1215 127.5019 60° Northeast  Level Estimated
05:57AM 26.1839 127.6228 60° Northeast  Level Estimated
05:58AM 26.1958 127.6459 60° Northeast  Level Estimated
05:59AM 26.1958 127.6459 347° North  Level Estimated
06:00AM 26.1958 127.6459 347° North  Level Estimated
06:01AM 26.1958 127.6459 347° North  Level Estimated
06:02AM 26.1958 127.6459 347° North  Level Estimated
06:03AM 26.1958 127.6459 347° North  Level Estimated
06:04AM 26.1958 127.6459 347° North  Level Estimated
06:05AM 26.1958 127.6459 347° North  Level Estimated
06:06AM 26.1958 127.6459 347° North  Level Estimated
06:07AM 26.1958 127.6459 347° North  Level Estimated
06:08AM 26.1958 127.6459 347° North  Level Estimated
06:09AM 26.1958 127.6459 347° North  Level Estimated